Aérodrome :
LOGIN :

S'inscrire | Disclaimer

   EN    FR    IT 

 










Légende :    VFR   VFR Marginal   IFR   IFR Intensif   IFR Très Intensif
Visi : 
Plafond : 
>= 8 km
>= 3000ft
5 à 8 km
1000 à 3000 ft
1500m à 5 km
500 à 1000 ft
800 à 1500m
200 à 500 ft
< 800m
< 200 ft
Symboles :   Orages  Brouillard  Fortes neiges  Fortes précipitations  Vent > 20 kt
SIGMETs :   Divers  Orages  Givrage  Turbulence  Onde Orograph.  Cendres Volcan.






- Altitude de l'aérodrome : 499 ft
- Code IATA : TLS


LFBO - Toulouse / Blagnac

DERNIER METAR :
  • 050630Z AUTO 00000KT 3300 1100 R14R/0900U R32L/P2000 R14L/P2000 R32R/1200D BR NSC 06/06 Q1018 TEMPO 0500 FG VV///

METARs EXPIRÉS :
  • 050600Z AUTO 00000KT 2900 1300 R14R/P2000 R32L/1600D R14L/1500U R32R/0900U BR FEW012 06/06 Q1018 TEMPO 0500 FG VV///
  • 050530Z AUTO 00000KT 4400 1300 R14R/0800U R32L/P2000 R14L/P2000 R32R/P2000 BR FEW001 06/06 Q1018 TEMPO 0500 FG VV///
  • 050500Z AUTO 12002KT 5000 0350 R14R/0400D R32L/P2000 R14L/P2000 R32R/P2000 BCFG NSC 07/06 Q1018 TEMPO 0500 FG VV///
  • 050430Z AUTO 14002KT 5000 1900 BR NSC 07/06 Q1018 TEMPO 0500 FG VV///
  • 050400Z AUTO 15001KT 5000 0600 R14R/P2000 R32L/P2000 R14L/P2000 R32R/0750D BCFG NSC 06/05 Q1018 TEMPO 0500 FG VV///
  • 050330Z AUTO VRB02KT 5000 BR NSC 08/07 Q1018 TEMPO 0500 FG VV///

TAF TAF LFBO
Valide du 05 à 06h jusqu'au 06 à 12h UTC


050500Z 0506/0612 VRB02KT 4000 BR SCT002
TEMPO 0506/0510 0800 FG BKN001
PROB40
TEMPO 0506/0509 0500 FG VV///
BECMG 0510/0512 34007KT CAVOK
PROB30
TEMPO 0603/0607 4000 BR
ATIS : +33 5 62 74 66 36



MET'MAP, la Météo Aéronautique d'un coup d'oeil ! - Copyright ORBIFLY Décembre 2007 - Disclaimer

ORBIFLY MET'MAP TEAM :

Programmation & Développement : Alexandra Zaïnal
Sur une idée originale de : Baudouin d'Aumeries
Assistance à la programmation : Marc-Olivier Méhu
Soutien technique & logistique : Manuel Goepfert

Contact : metmap@orbifly.com




SOURCES & CREDITS :

   NOAA